Time;durP1;ratioP1;P1;durP2;ratioP2;P2;SDS_P1;SDS_P2;PMS_P1;PMS_P2;Temp;Humidity;BMP_temperature;BMP_pressure;BME280_temperature;BME280_humidity;BME280_pressure;Samples;Min_cycle;Max_cycle;Signal;HPM_P1;HPM_P2
2023/05/12 00:00:55;;;;;;;2.37;1.23;;;;;;;9.43;96.88;99544.34;5092688;28;20201;-76
2023/05/12 00:03:22;;;;;;;1.43;1.17;;;;;;;9.45;96.74;99542.50;5092824;28;20218;-75
2023/05/12 00:05:50;;;;;;;1.03;0.70;;;;;;;9.43;95.94;99554.56;5092471;28;20194;-76
2023/05/12 00:08:18;;;;;;;1.13;0.90;;;;;;;9.48;96.77;99547.44;5092282;28;20248;-74
2023/05/12 00:10:45;;;;;;;1.93;1.20;;;;;;;9.51;96.92;99544.69;5092399;28;20704;-75
2023/05/12 00:13:12;;;;;;;1.37;0.97;;;;;;;9.44;96.18;99544.25;5092472;28;20222;-74
2023/05/12 00:15:39;;;;;;;1.50;0.90;;;;;;;9.44;96.51;99548.53;5092116;28;20194;-74
2023/05/12 00:18:05;;;;;;;1.67;1.13;;;;;;;9.47;96.81;99548.34;5092388;28;20654;-74
2023/05/12 00:20:32;;;;;;;1.40;1.20;;;;;;;9.45;97.51;99545.06;5092087;28;20197;-76
2023/05/12 00:23:00;;;;;;;2.10;0.90;;;;;;;9.36;97.93;99543.88;5092201;28;20573;-74
2023/05/12 00:25:27;;;;;;;2.07;0.90;;;;;;;9.25;98.72;99552.19;5092497;28;20194;-76
2023/05/12 00:27:54;;;;;;;1.53;1.20;;;;;;;9.30;98.70;99547.63;5092057;28;20233;-76
2023/05/12 00:30:21;;;;;;;2.00;1.27;;;;;;;9.28;99.46;99552.00;5092072;28;20213;-74
2023/05/12 00:32:48;;;;;;;1.03;0.97;;;;;;;9.36;99.89;99548.16;5091742;28;20218;-74
2023/05/12 00:35:15;;;;;;;1.33;1.20;;;;;;;9.43;99.83;99552.00;5092080;28;20200;-74
2023/05/12 00:37:42;;;;;;;1.47;1.03;;;;;;;9.36;99.60;99550.72;5091877;28;20201;-74
2023/05/12 00:40:11;;;;;;;1.30;1.20;;;;;;;9.45;99.90;99557.81;5091952;28;20202;-75
2023/05/12 00:42:38;;;;;;;0.87;0.87;;;;;;;9.43;100.00;99554.56;5091801;28;20204;-75
2023/05/12 00:45:06;;;;;;;1.40;1.23;;;;;;;9.29;100.00;99558.75;5091948;28;20217;-75
2023/05/12 00:47:33;;;;;;;1.20;0.90;;;;;;;9.37;100.00;99547.28;5090870;28;20230;-75
2023/05/12 00:50:00;;;;;;;0.80;0.80;;;;;;;9.32;100.00;99541.63;5091856;28;20202;-74
2023/05/12 00:52:27;;;;;;;1.20;0.83;;;;;;;9.30;100.00;99539.97;5091335;28;20201;-75
2023/05/12 00:54:55;;;;;;;1.37;1.03;;;;;;;9.38;100.00;99546.34;5091799;28;20209;-74
2023/05/12 00:57:26;;;;;;;7.67;1.33;;;;;;;9.39;100.00;99548.78;5091351;28;20216;-75
2023/05/12 00:59:53;;;;;;;4.70;1.70;;;;;;;9.33;100.00;99549.16;5091920;28;20202;-74
2023/05/12 01:02:21;;;;;;;3.03;0.97;;;;;;;9.33;100.00;99548.34;5091452;28;20456;-74
2023/05/12 01:04:48;;;;;;;1.20;1.10;;;;;;;9.35;100.00;99556.75;5091726;28;20218;-76
2023/05/12 01:07:19;;;;;;;1.67;1.27;;;;;;;9.29;100.00;99557.94;5091258;28;20634;-75
2023/05/12 01:09:46;;;;;;;1.40;1.30;;;;;;;9.22;100.00;99557.47;5091509;28;20222;-74
2023/05/12 01:12:12;;;;;;;1.53;1.23;;;;;;;9.30;100.00;99552.72;5091386;28;20206;-74
2023/05/12 01:14:41;;;;;;;1.33;1.10;;;;;;;9.25;100.00;99552.19;5091343;28;20214;-75
2023/05/12 01:17:12;;;;;;;1.87;1.47;;;;;;;9.19;100.00;99555.09;5090997;28;20213;-75
2023/05/12 01:19:41;;;;;;;2.27;1.60;;;;;;;9.14;100.00;99554.56;5091166;28;20222;-74
2023/05/12 01:22:09;;;;;;;2.17;1.23;;;;;;;9.18;100.00;99553.44;5091078;28;20217;-75
2023/05/12 01:24:43;;;;;;;2.83;1.70;;;;;;;9.23;100.00;99556.56;5091012;28;20226;-76
2023/05/12 01:27:12;;;;;;;4.50;1.10;;;;;;;9.15;100.00;99551.09;5090958;28;20262;-74
2023/05/12 01:29:39;;;;;;;2.90;1.70;;;;;;;9.11;100.00;99549.63;5090905;28;20714;-75
2023/05/12 01:32:07;;;;;;;1.37;1.20;;;;;;;9.15;100.00;99548.53;5090864;28;20675;-74
2023/05/12 01:34:35;;;;;;;2.10;1.40;;;;;;;9.07;100.00;99550.72;5090848;28;20748;-75
2023/05/12 01:37:02;;;;;;;3.13;1.30;;;;;;;9.12;100.00;99551.25;5090879;28;20255;-75
2023/05/12 01:39:29;;;;;;;1.67;1.13;;;;;;;9.04;100.00;99548.34;5090840;28;20249;-75
2023/05/12 01:41:56;;;;;;;1.10;1.00;;;;;;;9.10;100.00;99547.97;5090736;28;20586;-74
2023/05/12 01:44:24;;;;;;;2.50;1.27;;;;;;;9.14;100.00;99544.34;5090603;28;20251;-76
2023/05/12 01:46:51;;;;;;;0.67;0.67;;;;;;;9.18;100.00;99548.34;5090693;28;20198;-75
2023/05/12 01:49:17;;;;;;;1.90;1.53;;;;;;;9.16;100.00;99552.75;5090245;28;20492;-74
2023/05/12 01:51:44;;;;;;;2.40;1.50;;;;;;;9.15;100.00;99553.63;5090335;28;20205;-74
2023/05/12 01:54:11;;;;;;;1.40;1.10;;;;;;;9.13;100.00;99552.06;5090479;28;20225;-76
2023/05/12 01:56:38;;;;;;;4.53;1.60;;;;;;;9.18;100.00;99550.91;5090379;28;20599;-75
2023/05/12 01:59:04;;;;;;;2.13;1.30;;;;;;;9.18;100.00;99556.00;5090128;28;20218;-74
2023/05/12 02:01:33;;;;;;;1.40;1.30;;;;;;;9.13;100.00;99552.88;5090360;28;20206;-76
2023/05/12 02:04:00;;;;;;;1.20;1.10;;;;;;;9.20;100.00;99551.63;5090385;28;20218;-74
2023/05/12 02:06:27;;;;;;;1.73;1.00;;;;;;;9.22;100.00;99552.38;5090260;28;20220;-74
2023/05/12 02:08:54;;;;;;;1.13;1.03;;;;;;;9.10;100.00;99539.50;5090246;28;20234;-74
2023/05/12 02:11:20;;;;;;;1.57;1.30;;;;;;;9.17;100.00;99549.28;5090129;28;20201;-73
2023/05/12 02:13:47;;;;;;;1.80;1.37;;;;;;;9.25;100.00;99542.00;5090085;28;20220;-76
2023/05/12 02:16:14;;;;;;;1.43;1.33;;;;;;;9.27;100.00;99539.31;5089997;28;20202;-74
2023/05/12 02:18:42;;;;;;;1.10;1.00;;;;;;;9.23;100.00;99541.25;5090036;28;20225;-74
2023/05/12 02:21:09;;;;;;;2.73;1.23;;;;;;;9.24;100.00;99550.53;5090172;28;20198;-75
2023/05/12 02:23:36;;;;;;;1.83;1.40;;;;;;;9.15;100.00;99545.97;5089995;28;20214;-74
2023/05/12 02:26:03;;;;;;;1.93;1.50;;;;;;;9.19;100.00;99547.47;5089752;28;20197;-75
2023/05/12 02:28:29;;;;;;;1.40;1.30;;;;;;;9.18;100.00;99548.34;5089958;28;20312;-74
2023/05/12 02:30:56;;;;;;;1.40;1.13;;;;;;;9.15;100.00;99543.44;5090210;28;20584;-76
2023/05/12 02:33:23;;;;;;;1.67;1.37;;;;;;;9.30;100.00;99550.16;5089857;28;20600;-74
2023/05/12 02:35:51;;;;;;;2.83;1.83;;;;;;;9.23;100.00;99543.81;5089955;28;20227;-74
2023/05/12 02:38:18;;;;;;;1.87;1.47;;;;;;;9.21;100.00;99555.81;5089740;28;20599;-74
2023/05/12 02:40:46;;;;;;;2.53;1.77;;;;;;;9.15;100.00;99548.53;5089852;28;20674;-76
2023/05/12 02:43:13;;;;;;;1.90;1.50;;;;;;;9.13;100.00;99544.44;5089669;28;20214;-74
2023/05/12 02:45:40;;;;;;;2.03;1.63;;;;;;;9.15;100.00;99543.44;5089495;28;20198;-76
2023/05/12 02:48:07;;;;;;;1.53;1.30;;;;;;;9.15;100.00;99545.97;5089751;28;20225;-74
2023/05/12 02:50:33;;;;;;;4.37;1.90;;;;;;;9.01;100.00;99548.50;5089438;28;20198;-74
2023/05/12 02:53:02;;;;;;;2.23;1.70;;;;;;;9.05;100.00;99547.44;5089364;28;20229;-73
2023/05/12 02:55:29;;;;;;;3.10;1.73;;;;;;;9.10;100.00;99547.97;5089636;28;20194;-75
2023/05/12 02:57:56;;;;;;;2.13;1.40;;;;;;;9.10;100.00;99557.38;5089821;28;20690;-73
2023/05/12 03:00:23;;;;;;;9.57;1.80;;;;;;;9.11;100.00;99561.56;5089593;28;20692;-73
2023/05/12 03:02:50;;;;;;;1.53;1.43;;;;;;;9.11;100.00;99559.03;5089350;28;20226;-75
2023/05/12 03:05:17;;;;;;;2.03;1.53;;;;;;;8.98;100.00;99564.00;5089741;28;20206;-75
2023/05/12 03:07:44;;;;;;;3.33;1.80;;;;;;;8.98;100.00;99564.00;5089687;28;20613;-75
2023/05/12 03:10:12;;;;;;;4.00;1.47;;;;;;;8.96;100.00;99568.34;5090046;28;20205;-73
2023/05/12 03:12:39;;;;;;;1.80;1.57;;;;;;;8.84;100.00;99563.09;5093554;28;20613;-73
2023/05/12 03:15:07;;;;;;;2.00;1.37;;;;;;;8.77;100.00;99561.78;5093547;28;20244;-74
2023/05/12 03:17:34;;;;;;;1.20;1.10;;;;;;;8.83;100.00;99566.53;5093299;28;20237;-74
2023/05/12 03:20:01;;;;;;;1.57;1.23;;;;;;;8.86;100.00;99564.72;5093131;28;20209;-74
2023/05/12 03:22:28;;;;;;;1.73;1.47;;;;;;;8.83;100.00;99571.63;5093831;28;20205;-73
2023/05/12 03:24:55;;;;;;;1.50;1.37;;;;;;;8.87;100.00;99571.44;5093468;28;20201;-74
2023/05/12 03:27:23;;;;;;;1.40;1.03;;;;;;;8.91;100.00;99575.47;5093621;28;20213;-75
2023/05/12 03:29:50;;;;;;;1.83;1.70;;;;;;;8.88;100.00;99578.19;5092935;28;20746;-76
2023/05/12 03:32:17;;;;;;;6.57;2.27;;;;;;;8.90;100.00;99576.38;5093337;28;20220;-75
2023/05/12 03:34:44;;;;;;;1.97;1.50;;;;;;;8.86;100.00;99574.91;5093092;28;20229;-75
2023/05/12 03:37:11;;;;;;;3.13;1.83;;;;;;;8.91;100.00;99583.13;5093034;28;20292;-73
2023/05/12 03:39:38;;;;;;;3.20;1.30;;;;;;;8.88;100.00;99585.84;5093360;28;20283;-74
2023/05/12 03:42:05;;;;;;;2.53;1.70;;;;;;;8.95;100.00;99597.31;5093026;28;20206;-74
2023/05/12 03:44:34;;;;;;;2.47;1.67;;;;;;;8.92;100.00;99597.50;5093186;28;20697;-75
2023/05/12 03:47:00;;;;;;;3.17;1.70;;;;;;;8.94;100.00;99598.25;5092900;28;20198;-74
2023/05/12 03:49:27;;;;;;;2.97;1.80;;;;;;;8.87;100.00;99597.75;5092934;28;20234;-75
2023/05/12 03:51:54;;;;;;;4.13;1.90;;;;;;;8.94;100.00;99601.63;5092704;28;20209;-75
2023/05/12 03:54:21;;;;;;;4.47;2.10;;;;;;;8.95;100.00;99604.97;5092802;28;20221;-74
2023/05/12 03:56:48;;;;;;;2.77;1.80;;;;;;;8.76;100.00;99611.13;5092613;28;20599;-74
2023/05/12 03:59:15;;;;;;;1.90;1.50;;;;;;;8.96;100.00;99616.81;5093068;28;20217;-75
2023/05/12 04:01:43;;;;;;;2.10;1.73;;;;;;;8.90;100.00;99617.16;5093068;28;20205;-75
2023/05/12 04:04:09;;;;;;;1.67;1.57;;;;;;;8.95;100.00;99612.63;5092609;28;20527;-73
2023/05/12 04:06:37;;;;;;;3.17;1.83;;;;;;;8.97;100.00;99618.47;5092589;28;20568;-74
2023/05/12 04:09:04;;;;;;;3.37;1.90;;;;;;;9.03;100.00;99618.13;5092718;28;20370;-74
2023/05/12 04:11:30;;;;;;;4.33;2.10;;;;;;;9.09;100.00;99622.88;5092325;28;20649;-73
2023/05/12 04:13:57;;;;;;;4.80;1.80;;;;;;;9.14;100.00;99631.09;5092672;28;20214;-75
2023/05/12 04:16:24;;;;;;;2.37;1.80;;;;;;;9.08;100.00;99628.88;5092267;28;20201;-75
2023/05/12 04:18:52;;;;;;;2.70;2.03;;;;;;;9.08;100.00;99634.00;5092386;28;20229;-75
2023/05/12 04:21:19;;;;;;;2.60;1.57;;;;;;;9.14;100.00;99631.09;5092205;28;20201;-73
2023/05/12 04:23:46;;;;;;;2.10;1.67;;;;;;;9.11;100.00;99631.25;5091312;28;20213;-75
2023/05/12 04:26:13;;;;;;;1.80;1.63;;;;;;;9.25;100.00;99633.84;5092112;28;20611;-73
2023/05/12 04:28:40;;;;;;;4.73;2.43;;;;;;;9.38;100.00;99633.13;5091924;28;20234;-75
2023/05/12 04:31:07;;;;;;;3.37;1.90;;;;;;;9.22;100.00;99644.22;5092253;28;20209;-73
2023/05/12 04:33:34;;;;;;;2.40;1.83;;;;;;;9.27;100.00;99637.09;5091987;28;20214;-75
2023/05/12 04:36:02;;;;;;;2.20;1.73;;;;;;;9.43;100.00;99641.34;5091930;28;20198;-73
2023/05/12 04:38:29;;;;;;;1.70;1.30;;;;;;;9.48;100.00;99639.31;5091750;28;20225;-74
2023/05/12 04:40:58;;;;;;;5.97;2.47;;;;;;;9.50;100.00;99645.16;5092100;28;20584;-75
2023/05/12 04:43:25;;;;;;;2.53;2.27;;;;;;;9.42;100.00;99644.78;5091788;28;20249;-75
2023/05/12 04:45:54;;;;;;;2.10;1.90;;;;;;;9.49;100.00;99644.34;5091809;28;20205;-75
2023/05/12 04:48:21;;;;;;;2.83;1.87;;;;;;;9.52;100.00;99653.56;5091910;28;20664;-74
2023/05/12 04:50:47;;;;;;;2.97;1.90;;;;;;;9.62;100.00;99653.81;5091735;28;20210;-74
2023/05/12 04:53:16;;;;;;;2.43;1.93;;;;;;;9.68;100.00;99653.44;5091665;28;20222;-73
2023/05/12 04:55:44;;;;;;;4.03;2.23;;;;;;;9.56;100.00;99652.44;5091628;28;20202;-73
2023/05/12 04:58:12;;;;;;;4.70;2.43;;;;;;;9.63;100.00;99658.84;5091338;28;20254;-75
2023/05/12 05:00:39;;;;;;;2.03;1.57;;;;;;;9.70;100.00;99655.00;5091400;28;20198;-74
2023/05/12 05:03:06;;;;;;;3.00;2.10;;;;;;;9.65;100.00;99662.09;5091157;28;20233;-73
2023/05/12 05:05:33;;;;;;;2.43;2.07;;;;;;;9.70;100.00;99660.13;5091096;28;20201;-73
2023/05/12 05:08:00;;;;;;;4.90;2.30;;;;;;;9.67;100.00;99664.59;5091493;28;20230;-73
2023/05/12 05:10:28;;;;;;;2.63;1.83;;;;;;;9.77;100.00;99664.84;5090943;28;20240;-75
2023/05/12 05:12:55;;;;;;;4.53;2.70;;;;;;;9.80;100.00;99675.69;5091464;28;20237;-74
2023/05/12 05:15:22;;;;;;;2.23;1.80;;;;;;;9.85;100.00;99672.88;5091552;28;20224;-73
2023/05/12 05:17:49;;;;;;;5.00;2.53;;;;;;;9.73;100.00;99675.25;5091191;28;20225;-73
2023/05/12 05:20:16;;;;;;;2.70;1.93;;;;;;;9.80;100.00;99680.81;5090878;28;20205;-75
2023/05/12 05:22:43;;;;;;;2.63;2.33;;;;;;;9.85;100.00;99676.25;5091058;28;20259;-74
2023/05/12 05:25:10;;;;;;;2.63;2.10;;;;;;;9.94;100.00;99677.44;5091061;28;20209;-75
2023/05/12 05:27:38;;;;;;;3.87;2.60;;;;;;;9.94;100.00;99682.53;5090770;28;20194;-75
2023/05/12 05:30:07;;;;;;;3.90;2.10;;;;;;;9.95;100.00;99684.19;5091176;28;20237;-75
2023/05/12 05:32:35;;;;;;;5.70;2.67;;;;;;;10.06;100.00;99686.91;5090875;28;20205;-78
2023/05/12 05:35:01;;;;;;;2.83;2.13;;;;;;;10.10;100.00;99692.69;5090847;28;20193;-75
2023/05/12 05:37:28;;;;;;;3.70;2.20;;;;;;;10.11;100.00;99695.13;5090624;28;20591;-75
2023/05/12 05:39:55;;;;;;;3.30;2.80;;;;;;;9.95;100.00;99689.31;5090979;28;20198;-75
2023/05/12 05:42:22;;;;;;;3.60;2.73;;;;;;;10.10;100.00;99693.50;5090904;28;20197;-74
2023/05/12 05:44:50;;;;;;;3.23;2.70;;;;;;;10.15;100.00;99695.75;5090715;28;20311;-75
2023/05/12 05:47:17;;;;;;;5.60;3.50;;;;;;;10.19;100.00;99692.13;5090705;28;20202;-74
2023/05/12 05:49:44;;;;;;;4.40;2.67;;;;;;;10.15;100.00;99699.16;5090449;28;20240;-75
2023/05/12 05:52:11;;;;;;;4.63;2.77;;;;;;;10.08;100.00;99695.31;5090707;28;20391;-74
2023/05/12 05:54:37;;;;;;;6.03;2.40;;;;;;;10.18;100.00;99693.84;5090337;28;20222;-74
2023/05/12 05:57:05;;;;;;;12.77;2.30;;;;;;;10.28;100.00;99691.56;5090339;28;20598;-74
2023/05/12 05:59:32;;;;;;;5.47;2.83;;;;;;;10.41;100.00;99692.47;5090134;28;20229;-75
2023/05/12 06:02:00;;;;;;;4.07;2.53;;;;;;;10.47;100.00;99691.28;5090349;28;20738;-74
2023/05/12 06:04:27;;;;;;;5.37;3.30;;;;;;;10.62;100.00;99697.16;5090435;28;20416;-74
2023/05/12 06:06:53;;;;;;;3.57;2.37;;;;;;;10.74;100.00;99698.13;5090191;28;20209;-75
2023/05/12 06:09:20;;;;;;;4.13;2.73;;;;;;;10.71;100.00;99701.69;5090480;28;20240;-74
2023/05/12 06:11:47;;;;;;;3.07;2.07;;;;;;;10.82;100.00;99701.00;5090129;28;20674;-70
2023/05/12 06:14:14;;;;;;;4.23;2.63;;;;;;;11.00;100.00;99704.97;5090232;28;20221;-69
2023/05/12 06:16:41;;;;;;;5.63;2.53;;;;;;;11.29;100.00;99709.94;5090280;28;20210;-74
2023/05/12 06:19:10;;;;;;;3.90;2.83;;;;;;;11.45;100.00;99707.19;5090193;28;20221;-73
2023/05/12 06:21:37;;;;;;;3.47;2.60;;;;;;;11.56;100.00;99715.81;5089912;28;20247;-73
2023/05/12 06:24:04;;;;;;;3.37;2.20;;;;;;;11.55;100.00;99716.72;5089884;28;20735;-76
2023/05/12 06:26:30;;;;;;;3.37;2.30;;;;;;;11.61;100.00;99714.69;5089863;28;20221;-69
2023/05/12 06:28:57;;;;;;;4.47;2.70;;;;;;;11.62;100.00;99716.31;5090100;28;20210;-69
2023/05/12 06:31:24;;;;;;;4.27;2.57;;;;;;;11.71;100.00;99720.84;5089826;28;20217;-75
2023/05/12 06:33:51;;;;;;;4.43;2.70;;;;;;;11.72;100.00;99717.34;5089620;28;20222;-74
2023/05/12 06:36:19;;;;;;;5.63;3.00;;;;;;;11.76;100.00;99718.78;5089710;28;20201;-74
2023/05/12 06:38:46;;;;;;;2.80;2.20;;;;;;;11.84;100.00;99716.53;5089864;28;20240;-68
2023/05/12 06:41:13;;;;;;;2.67;2.13;;;;;;;11.62;100.00;99721.44;5089656;28;20198;-68
2023/05/12 06:43:40;;;;;;;3.33;2.40;;;;;;;11.70;100.00;99726.88;5089911;28;20225;-73
2023/05/12 06:46:07;;;;;;;5.10;2.67;;;;;;;11.66;100.00;99728.00;5089306;28;20194;-73
2023/05/12 06:48:34;;;;;;;5.00;2.47;;;;;;;11.68;100.00;99732.09;5089641;28;20236;-74
2023/05/12 06:51:01;;;;;;;4.03;2.53;;;;;;;11.75;100.00;99732.50;5089747;28;20720;-68
2023/05/12 06:53:29;;;;;;;5.17;2.83;;;;;;;11.84;100.00;99731.91;5089676;28;20210;-68
2023/05/12 06:55:56;;;;;;;4.13;2.37;;;;;;;11.87;100.00;99736.84;5089796;28;20240;-73
2023/05/12 06:58:23;;;;;;;4.63;2.80;;;;;;;11.86;100.00;99726.69;5089528;28;20253;-69
2023/05/12 07:00:50;;;;;;;3.37;2.37;;;;;;;11.96;100.00;99736.22;5089731;28;20213;-73
2023/05/12 07:03:17;;;;;;;4.13;2.73;;;;;;;11.96;100.00;99731.09;5089432;28;20224;-68
2023/05/12 07:05:44;;;;;;;5.60;2.40;;;;;;;11.77;100.00;99726.34;5089506;28;20208;-69
2023/05/12 07:08:11;;;;;;;3.57;2.33;;;;;;;11.87;100.00;99736.84;5089360;28;20316;-68
2023/05/12 07:10:39;;;;;;;4.13;2.37;;;;;;;11.78;100.00;99732.31;5089395;28;20238;-68
2023/05/12 07:13:06;;;;;;;3.53;2.23;;;;;;;11.64;100.00;99740.09;5089182;28;20229;-70
2023/05/12 07:15:33;;;;;;;6.83;3.00;;;;;;;11.62;100.00;99731.69;5089358;28;20202;-69
2023/05/12 07:17:59;;;;;;;2.37;1.67;;;;;;;11.61;100.00;99733.44;5089430;28;20229;-69
2023/05/12 07:20:26;;;;;;;3.53;2.17;;;;;;;11.40;100.00;99733.09;5089898;28;20209;-68
2023/05/12 07:22:53;;;;;;;2.80;2.07;;;;;;;11.44;100.00;99736.28;5089474;28;20313;-73
2023/05/12 07:25:20;;;;;;;3.83;2.57;;;;;;;11.59;100.00;99735.28;5089667;28;20654;-68
2023/05/12 07:27:49;;;;;;;5.23;2.63;;;;;;;11.68;100.00;99732.09;5089643;28;20201;-71
2023/05/12 07:30:16;;;;;;;3.73;2.20;;;;;;;11.73;100.00;99730.06;5089496;28;20296;-73
2023/05/12 07:32:43;;;;;;;8.17;2.40;;;;;;;11.72;100.00;99735.25;5089464;28;20202;-68
2023/05/12 07:35:10;;;;;;;3.23;1.97;;;;;;;11.72;100.00;99737.81;5089255;28;20201;-68
2023/05/12 07:37:37;;;;;;;4.03;2.17;;;;;;;11.79;100.00;99736.50;5089234;28;20229;-73
2023/05/12 07:40:04;;;;;;;4.30;2.60;;;;;;;11.82;100.00;99741.44;5089681;28;20194;-73
2023/05/12 07:42:31;;;;;;;3.33;2.03;;;;;;;11.93;100.00;99744.13;5088992;28;20198;-73
2023/05/12 07:44:59;;;;;;;4.73;2.33;;;;;;;12.06;100.00;99735.59;5089476;28;20197;-68
2023/05/12 07:47:27;;;;;;;2.43;1.83;;;;;;;12.16;100.00;99742.56;5089174;28;20194;-69
2023/05/12 07:49:54;;;;;;;2.57;1.97;;;;;;;12.30;100.00;99740.78;5089301;28;20226;-69
2023/05/12 07:52:21;;;;;;;3.73;1.97;;;;;;;12.44;100.00;99736.34;5089481;28;20293;-69
2023/05/12 07:54:48;;;;;;;4.03;2.70;;;;;;;12.71;100.00;99732.75;5088885;28;20214;-68
2023/05/12 07:57:15;;;;;;;3.43;2.20;;;;;;;12.90;100.00;99743.38;5090776;28;20198;-73
2023/05/12 07:59:43;;;;;;;2.33;1.90;;;;;;;13.09;100.00;99736.94;5092664;28;20214;-69
2023/05/12 08:02:11;;;;;;;4.37;2.37;;;;;;;13.09;100.00;99726.66;5093157;28;20635;-69
2023/05/12 08:04:37;;;;;;;2.97;2.20;;;;;;;12.99;100.00;99731.63;5092666;28;20221;-71
2023/05/12 08:07:04;;;;;;;3.57;2.10;;;;;;;12.91;100.00;99744.19;5092349;28;20194;-73
2023/05/12 08:09:31;;;;;;;2.17;1.83;;;;;;;13.10;100.00;99733.44;5092423;28;20225;-73
2023/05/12 08:11:58;;;;;;;2.50;1.80;;;;;;;13.41;100.00;99736.34;5092552;28;20213;-69
2023/05/12 08:14:25;;;;;;;4.30;2.50;;;;;;;13.78;100.00;99737.00;5092534;28;20215;-74
2023/05/12 08:16:52;;;;;;;2.87;2.37;;;;;;;14.33;100.00;99730.22;5092365;28;20592;-69
2023/05/12 08:19:20;;;;;;;2.10;1.73;;;;;;;14.78;93.29;99740.47;5092426;28;20219;-73
2023/05/12 08:21:47;;;;;;;3.17;2.23;;;;;;;15.07;92.78;99730.41;5092210;28;20192;-69
2023/05/12 08:24:14;;;;;;;2.23;1.93;;;;;;;15.32;89.83;99736.94;5092378;28;20224;-73
2023/05/12 08:26:41;;;;;;;3.10;2.10;;;;;;;15.57;87.12;99737.53;5092118;28;20198;-72
2023/05/12 08:29:08;;;;;;;3.03;1.77;;;;;;;15.87;85.04;99743.69;5092145;28;20619;-73
2023/05/12 08:31:36;;;;;;;2.50;1.90;;;;;;;16.27;81.39;99746.28;5091923;28;20232;-72
2023/05/12 08:34:03;;;;;;;3.53;2.53;;;;;;;16.21;80.89;99751.97;5091917;28;20260;-68
2023/05/12 08:36:31;;;;;;;3.80;2.03;;;;;;;16.29;82.21;99759.88;5092098;28;20199;-75
2023/05/12 08:38:58;;;;;;;2.20;2.00;;;;;;;16.61;82.67;99749.38;5092115;28;20275;-71
2023/05/12 08:41:36;;;;;;;2.97;2.23;;;;;;;16.52;75.04;99743.25;5092227;28;20586;-71
2023/05/12 08:44:05;;;;;;;3.97;2.20;;;;;;;16.51;77.80;99751.09;5091977;28;20514;-73
2023/05/12 08:46:32;;;;;;;2.67;1.73;;;;;;;16.42;75.58;99752.72;5091865;28;20678;-70
2023/05/12 08:49:01;;;;;;;4.73;2.00;;;;;;;16.31;78.33;99739.91;5091953;28;20708;-72
2023/05/12 08:51:31;;;;;;;2.50;1.90;;;;;;;16.48;79.71;99741.03;5091615;28;20268;-75
2023/05/12 08:53:58;;;;;;;3.27;2.40;;;;;;;16.42;78.97;99744.97;5091756;28;20219;-73
2023/05/12 08:56:25;;;;;;;3.63;2.00;;;;;;;16.47;75.82;99747.97;5091520;28;20205;-70
2023/05/12 08:58:55;;;;;;;2.67;1.80;;;;;;;15.88;74.48;99748.69;5091298;28;20226;-74
2023/05/12 09:01:24;;;;;;;2.50;1.80;;;;;;;15.68;75.83;99739.22;5091693;28;20197;-75
2023/05/12 09:03:52;;;;;;;2.00;1.77;;;;;;;15.82;76.11;99741.47;5091751;28;20643;-75
2023/05/12 09:06:19;;;;;;;3.53;2.00;;;;;;;15.80;78.67;99733.06;5091475;28;20622;-72
2023/05/12 09:08:47;;;;;;;2.40;1.73;;;;;;;15.68;76.83;99744.38;5090542;28;20217;-75
2023/05/12 09:11:16;;;;;;;2.63;1.87;;;;;;;15.79;77.43;99728.84;5091249;28;20703;-71
2023/05/12 09:13:52;;;;;;;3.53;2.10;;;;;;;15.90;81.02;99735.69;5091371;28;20606;-75
2023/05/12 09:16:23;;;;;;;3.03;1.97;;;;;;;16.09;76.24;99727.22;5091252;28;20494;-72
2023/05/12 09:18:52;;;;;;;4.83;2.10;;;;;;;16.26;77.06;99729.16;5091026;28;20224;-75
2023/05/12 09:21:19;;;;;;;3.27;2.47;;;;;;;15.96;77.03;99733.41;5091390;28;20208;-75
2023/05/12 09:23:55;;;;;;;2.70;1.93;;;;;;;16.11;78.68;99731.28;5091093;28;20587;-75
2023/05/12 09:26:26;;;;;;;4.90;2.50;;;;;;;16.02;78.29;99732.88;5091036;28;20201;-70
2023/05/12 09:28:54;;;;;;;3.40;1.83;;;;;;;16.14;75.07;99735.38;5091088;28;20692;-71
2023/05/12 09:31:22;;;;;;;4.80;2.30;;;;;;;16.12;77.88;99721.81;5091145;28;20310;-71
2023/05/12 09:33:50;;;;;;;2.27;1.90;;;;;;;16.23;72.94;99729.41;5090793;28;20233;-73
2023/05/12 09:36:18;;;;;;;2.80;2.00;;;;;;;16.50;74.67;99729.63;5090925;28;20202;-75
2023/05/12 09:38:45;;;;;;;3.87;2.20;;;;;;;16.97;72.40;99727.25;5090884;28;20275;-75
2023/05/12 09:41:13;;;;;;;3.30;2.03;;;;;;;16.78;70.57;99724.66;5090729;28;20202;-70
2023/05/12 09:43:45;;;;;;;3.30;2.20;;;;;;;16.78;72.79;99732.41;5090965;28;20218;-75
2023/05/12 09:46:13;;;;;;;2.43;1.83;;;;;;;17.16;72.16;99744.53;5090764;28;20207;-70
2023/05/12 09:48:40;;;;;;;2.33;1.70;;;;;;;17.29;67.77;99735.69;5090650;28;20816;-71
2023/05/12 09:51:10;;;;;;;3.13;2.10;;;;;;;17.18;66.35;99739.22;5090477;28;20367;-75
2023/05/12 09:53:43;;;;;;;2.50;2.07;;;;;;;16.92;69.91;99741.53;5090349;28;20303;-70
2023/05/12 09:56:13;;;;;;;2.97;2.17;;;;;;;16.88;68.89;99740.19;5090717;28;20644;-73
2023/05/12 09:58:42;;;;;;;3.90;1.90;;;;;;;16.55;66.94;99737.00;5090679;28;20612;-74
2023/05/12 10:01:10;;;;;;;2.57;1.93;;;;;;;16.55;67.78;99729.25;5090296;28;20251;-70
2023/05/12 10:03:38;;;;;;;3.00;2.13;;;;;;;16.81;67.77;99734.72;5090200;28;20314;-74
2023/05/12 10:06:07;;;;;;;2.97;2.00;;;;;;;17.03;69.08;99732.84;5090249;28;20241;-70
2023/05/12 10:08:38;;;;;;;2.67;1.93;;;;;;;16.82;65.49;99736.38;5090076;28;20218;-70
2023/05/12 10:11:05;;;;;;;3.27;2.10;;;;;;;16.87;68.64;99739.38;5090123;28;20233;-74
2023/05/12 10:13:34;;;;;;;3.00;1.90;;;;;;;17.12;64.38;99737.19;5090038;28;20225;-75
2023/05/12 10:16:02;;;;;;;3.77;2.37;;;;;;;17.11;67.99;99730.41;5090272;28;20689;-70
2023/05/12 10:18:31;;;;;;;2.63;1.90;;;;;;;17.14;67.17;99740.47;5089921;28;20267;-70
2023/05/12 10:20:59;;;;;;;5.60;2.20;;;;;;;17.21;65.96;99733.78;5089279;28;20208;-74
2023/05/12 10:23:27;;;;;;;2.50;1.87;;;;;;;16.95;63.98;99741.25;5090171;28;20314;-74
2023/05/12 10:25:57;;;;;;;2.60;2.03;;;;;;;17.16;65.54;99733.38;5090292;28;20199;-70
2023/05/12 10:28:24;;;;;;;6.93;1.90;;;;;;;16.99;64.69;99737.47;5089798;28;20807;-74
2023/05/12 10:30:53;;;;;;;2.37;2.03;;;;;;;16.91;63.10;99734.75;5089948;28;20225;-74
2023/05/12 10:33:20;;;;;;;2.30;1.70;;;;;;;16.83;63.69;99738.00;5090108;28;20611;-70
2023/05/12 10:35:48;;;;;;;2.23;1.70;;;;;;;16.75;65.09;99725.75;5093856;28;20244;-74
2023/05/12 10:38:15;;;;;;;3.47;2.10;;;;;;;17.01;67.52;99724.41;5093810;28;20225;-74
2023/05/12 10:40:53;;;;;;;2.80;2.10;;;;;;;16.93;65.15;99723.34;5091964;28;20199;-69
2023/05/12 10:43:23;;;;;;;4.33;1.90;;;;;;;17.14;66.75;99730.13;5090294;28;20245;-70
2023/05/12 10:46:17;;;;;;;2.50;1.87;;;;;;;17.21;67.13;99720.84;5089772;28;20259;-70
2023/05/12 10:48:55;;;;;;;3.00;1.83;;;;;;;17.08;64.89;99708.22;5089928;28;20693;-74
2023/05/12 10:51:25;;;;;;;1.90;1.60;;;;;;;17.22;64.49;99712.16;5089783;28;20750;-74
2023/05/12 10:53:53;;;;;;;2.90;1.63;;;;;;;17.15;62.38;99711.06;5089489;28;20283;-71
2023/05/12 10:56:25;;;;;;;2.50;1.83;;;;;;;17.13;62.36;99708.66;5089686;28;20194;-70
2023/05/12 10:59:12;;;;;;;1.97;1.67;;;;;;;17.26;64.39;99703.19;5089581;28;20311;-73
2023/05/12 11:01:41;;;;;;;2.07;1.63;;;;;;;17.35;65.52;99710.09;5089612;28;20243;-75
2023/05/12 11:04:13;;;;;;;2.23;1.80;;;;;;;17.31;62.16;99706.16;5089605;28;20232;-70
2023/05/12 11:06:40;;;;;;;2.10;1.90;;;;;;;17.40;63.67;99715.66;5090168;28;20210;-75
2023/05/12 11:09:07;;;;;;;2.90;1.90;;;;;;;17.30;61.03;99701.13;5089389;28;20218;-70
2023/05/12 11:11:34;;;;;;;2.37;2.03;;;;;;;17.28;61.67;99710.78;5089340;28;20235;-75
2023/05/12 11:14:01;;;;;;;2.40;1.70;;;;;;;17.28;60.72;99716.78;5089707;28;20230;-70
2023/05/12 11:16:28;;;;;;;2.17;1.70;;;;;;;17.17;61.61;99710.00;5089613;28;20577;-74
2023/05/12 11:19:04;;;;;;;3.57;1.73;;;;;;;17.32;59.90;99712.97;5089286;28;20218;-70
2023/05/12 11:21:32;;;;;;;2.23;1.60;;;;;;;17.39;59.76;99713.22;5089203;28;20203;-75
2023/05/12 11:23:59;;;;;;;2.43;1.67;;;;;;;17.12;57.60;99711.34;5089795;28;20252;-75
2023/05/12 11:26:27;;;;;;;4.13;1.93;;;;;;;17.04;59.10;99708.63;5089437;28;20228;-74
2023/05/12 11:28:54;;;;;;;2.57;1.70;;;;;;;17.13;58.62;99703.47;5089440;28;20222;-73
2023/05/12 11:31:21;;;;;;;2.00;1.43;;;;;;;17.07;59.30;99713.53;5089658;28;20233;-70
2023/05/12 11:33:49;;;;;;;4.47;1.93;;;;;;;17.10;57.15;99714.06;5093479;28;20219;-74